Time;durP1;ratioP1;P1;durP2;ratioP2;P2;SDS_P1;SDS_P2;PMS_P1;PMS_P2;Temp;Humidity;BMP_temperature;BMP_pressure;BME280_temperature;BME280_humidity;BME280_pressure;Samples;Min_cycle;Max_cycle;Signal;HPM_P1;HPM_P2
2022/01/03 00:00:25;;;;;;;11.40;2.30;;;11.20;99.90;;;;;;5060399;28;20184;-85
2022/01/03 00:02:54;;;;;;;12.17;2.07;;;10.10;99.90;;;;;;5044270;28;20223;-86
2022/01/03 00:05:20;;;;;;;12.33;1.53;;;10.10;99.90;;;;;;5043862;28;20550;-86
2022/01/03 00:07:46;;;;;;;13.10;3.33;;;10.80;99.90;;;;;;5043745;28;20267;-88
2022/01/03 00:10:15;;;;;;;19.50;2.57;;;10.00;99.90;;;;;;5043266;28;20278;-87
2022/01/03 00:12:42;;;;;;;19.23;3.13;;;10.40;99.90;;;;;;5060635;28;20196;-84
2022/01/03 00:15:10;;;;;;;6.67;1.63;;;10.30;99.90;;;;;;5043684;28;20189;-86
2022/01/03 00:17:37;;;;;;;21.87;3.30;;;10.00;99.90;;;;;;5043678;28;20186;-87
2022/01/03 00:20:05;;;;;;;23.43;2.23;;;10.00;99.90;;;;;;5043635;28;20184;-84
2022/01/03 00:22:39;;;;;;;19.47;3.00;;;10.00;99.90;;;;;;5045506;28;20241;-87
2022/01/03 00:25:15;;;;;;;13.73;1.80;;;10.00;99.90;;;;;;5046508;28;20180;-88
2022/01/03 00:28:04;;;;;;;10.07;2.20;;;10.00;99.90;;;;;;5045535;28;20182;-86
2022/01/03 00:30:34;;;;;;;17.00;2.27;;;9.90;99.90;;;;;;5044558;28;20180;-87
2022/01/03 00:33:01;;;;;;;18.27;2.10;;;9.90;99.90;;;;;;5044779;28;20657;-88
2022/01/03 00:35:28;;;;;;;10.43;1.27;;;9.90;99.90;;;;;;5045578;28;20206;-87
2022/01/03 00:37:57;;;;;;;16.53;2.30;;;9.90;99.90;;;;;;5045040;28;20275;-85
2022/01/03 00:40:24;;;;;;;4.87;1.57;;;9.90;99.90;;;;;;5045427;28;20184;-87
2022/01/03 00:42:50;;;;;;;14.00;2.00;;;9.90;99.90;;;;;;5044044;28;20212;-88
2022/01/03 00:45:16;;;;;;;9.50;1.80;;;10.00;99.90;;;;;;5065242;28;20184;-88
2022/01/03 00:47:41;;;;;;;3.60;1.30;;;10.00;99.90;;;;;;5048604;28;20189;-84
2022/01/03 00:50:10;;;;;;;8.30;2.17;;;10.00;99.90;;;;;;5049370;28;20180;-87
2022/01/03 00:52:36;;;;;;;13.37;2.37;;;10.00;99.90;;;;;;5049579;28;20644;-87
2022/01/03 00:55:04;;;;;;;19.97;3.07;;;10.50;99.90;;;;;;5050233;28;20191;-88
2022/01/03 00:57:48;;;;;;;8.13;1.83;;;9.90;99.90;;;;;;5051108;28;20330;-89
2022/01/03 01:00:15;;;;;;;7.60;1.67;;;9.90;99.90;;;;;;5062327;28;20172;-87
2022/01/03 01:02:50;;;;;;;11.20;1.63;;;10.00;99.90;;;;;;5042542;28;20208;-86
2022/01/03 01:05:19;;;;;;;11.93;2.03;;;9.90;99.90;;;;;;5043354;28;20218;-88
2022/01/03 01:07:46;;;;;;;14.10;2.23;;;9.80;99.90;;;;;;5044789;28;20251;-86
2022/01/03 01:10:12;;;;;;;13.30;2.07;;;9.90;99.90;;;;;;5044101;28;20209;-87
2022/01/03 01:12:40;;;;;;;13.87;3.17;;;9.90;99.90;;;;;;5041773;28;20220;-85
2022/01/03 01:15:06;;;;;;;8.10;1.43;;;9.90;99.90;;;;;;5039142;28;20192;-86
2022/01/03 01:17:32;;;;;;;5.00;1.63;;;9.90;99.90;;;;;;5039070;28;20220;-85
2022/01/03 01:19:59;;;;;;;9.17;2.17;;;9.90;99.90;;;;;;5039506;28;20253;-85
2022/01/03 01:22:25;;;;;;;13.30;1.70;;;9.90;99.90;;;;;;5038883;28;20212;-84
2022/01/03 01:27:48;;;;;;;10.37;1.50;;;10.00;99.90;;;;;;5041480;28;20591;-86
2022/01/03 01:30:20;;;;;;;6.00;1.17;;;10.00;99.90;;;;;;5039717;28;20280;-85
2022/01/03 01:33:02;;;;;;;9.63;2.40;;;10.00;99.90;;;;;;5057054;28;20675;-87
2022/01/03 01:35:39;;;;;;;12.67;2.37;;;10.00;99.90;;;;;;5039661;28;20177;-85
2022/01/03 01:38:07;;;;;;;17.07;2.67;;;10.00;99.90;;;;;;5045831;28;20272;-88
2022/01/03 01:40:33;;;;;;;16.07;2.23;;;10.00;99.90;;;;;;5067732;28;20188;-88
2022/01/03 01:43:01;;;;;;;6.50;1.83;;;10.00;99.90;;;;;;5049951;28;20528;-88
2022/01/03 01:45:27;;;;;;;8.90;2.20;;;10.00;99.90;;;;;;5049634;28;20193;-86
2022/01/03 01:47:58;;;;;;;7.90;1.80;;;10.00;99.90;;;;;;5050348;28;20188;-87
2022/01/03 01:50:28;;;;;;;14.47;1.80;;;10.00;99.90;;;;;;5049813;28;20176;-86
2022/01/03 01:52:56;;;;;;;13.33;2.13;;;10.00;99.90;;;;;;5068733;28;20180;-88
2022/01/03 01:55:22;;;;;;;6.43;1.73;;;10.00;99.90;;;;;;5049777;28;20195;-87
2022/01/03 01:58:04;;;;;;;7.13;1.43;;;9.90;99.90;;;;;;5049938;28;20200;-88
2022/01/03 02:00:32;;;;;;;13.17;1.97;;;10.00;99.90;;;;;;5050905;28;20188;-87
2022/01/03 02:03:15;;;;;;;6.97;1.57;;;10.00;99.90;;;;;;5050896;28;20199;-88
2022/01/03 02:05:51;;;;;;;6.10;1.10;;;9.90;99.90;;;;;;5052555;28;20177;-85
2022/01/03 02:08:25;;;;;;;10.00;1.63;;;10.40;99.90;;;;;;5068306;28;20195;-88
2022/01/03 02:11:20;;;;;;;11.67;1.93;;;9.80;99.90;;;;;;5052045;28;20269;-88
2022/01/03 02:13:46;;;;;;;16.20;1.93;;;9.90;99.90;;;;;;5051615;28;20172;-86
2022/01/03 02:16:12;;;;;;;14.17;2.40;;;9.70;99.90;;;;;;5069251;28;20251;-89
2022/01/03 02:18:38;;;;;;;9.33;1.97;;;9.80;99.90;;;;;;5054468;28;20195;-86
2022/01/03 02:21:04;;;;;;;4.40;1.07;;;9.80;99.90;;;;;;5056617;28;20212;-87
2022/01/03 02:23:30;;;;;;;12.03;2.10;;;9.80;99.90;;;;;;5038458;28;20271;-84
2022/01/03 02:25:56;;;;;;;13.00;2.13;;;9.80;99.90;;;;;;5056042;28;20199;-85
2022/01/03 02:28:22;;;;;;;8.97;1.70;;;9.80;99.90;;;;;;5038702;28;20663;-84
2022/01/03 02:30:50;;;;;;;14.47;2.30;;;9.80;99.90;;;;;;5056103;28;20223;-85
2022/01/03 02:33:16;;;;;;;3.37;0.80;;;9.80;99.90;;;;;;5038643;28;20183;-86
2022/01/03 02:35:43;;;;;;;2.87;1.10;;;9.80;99.90;;;;;;5038656;28;20255;-86
2022/01/03 02:38:09;;;;;;;15.60;1.87;;;9.80;99.90;;;;;;5038496;28;20635;-85
2022/01/03 02:40:36;;;;;;;12.07;1.93;;;9.80;99.90;;;;;;5038085;28;20209;-86
2022/01/03 02:43:02;;;;;;;12.63;2.10;;;9.80;99.90;;;;;;5037979;28;20184;-86
2022/01/03 02:45:28;;;;;;;9.80;1.57;;;9.80;99.90;;;;;;5038736;28;20186;-86
2022/01/03 02:47:57;;;;;;;12.60;2.40;;;9.80;99.90;;;;;;5038522;28;20298;-86
2022/01/03 02:50:24;;;;;;;17.43;3.20;;;9.80;99.90;;;;;;5056163;28;20314;-86
2022/01/03 02:52:50;;;;;;;12.03;2.00;;;9.60;99.90;;;;;;5038135;28;20712;-85
2022/01/03 02:55:16;;;;;;;9.43;1.87;;;9.80;99.90;;;;;;5038293;28;20277;-86
2022/01/03 02:57:47;;;;;;;12.17;1.83;;;9.80;99.90;;;;;;5056091;28;20263;-86
2022/01/03 03:00:17;;;;;;;12.67;1.87;;;9.80;99.90;;;;;;5038096;28;20187;-86
2022/01/03 03:02:42;;;;;;;10.97;1.50;;;9.80;99.90;;;;;;5038409;28;20209;-84
2022/01/03 03:05:10;;;;;;;13.30;2.83;;;9.70;99.90;;;;;;5037899;28;20215;-83
2022/01/03 03:07:36;;;;;;;5.83;1.37;;;9.70;99.90;;;;;;5055997;28;20246;-87
2022/01/03 03:10:10;;;;;;;11.60;1.60;;;9.70;99.90;;;;;;5038221;28;20671;-85
2022/01/03 03:12:36;;;;;;;6.93;1.37;;;9.80;99.90;;;;;;5055367;28;20202;-83
2022/01/03 03:15:02;;;;;;;7.10;1.47;;;9.70;99.90;;;;;;5037825;28;20184;-86
2022/01/03 03:17:27;;;;;;;11.00;1.50;;;9.60;99.90;;;;;;5037741;28;20184;-84
2022/01/03 03:19:54;;;;;;;11.63;1.97;;;9.70;99.90;;;;;;5038317;28;20191;-87
2022/01/03 03:22:19;;;;;;;10.33;1.77;;;9.70;99.90;;;;;;5038593;28;20246;-86
2022/01/03 03:24:45;;;;;;;17.93;2.17;;;9.70;99.90;;;;;;5038130;28;20569;-86
2022/01/03 03:27:12;;;;;;;12.40;1.67;;;9.70;99.90;;;;;;5036931;28;20188;-86
2022/01/03 03:29:46;;;;;;;7.13;1.97;;;9.70;99.90;;;;;;5036593;28;20177;-85
2022/01/03 03:32:13;;;;;;;7.30;1.13;;;9.70;99.90;;;;;;5054521;28;20235;-85
2022/01/03 03:34:39;;;;;;;13.27;2.83;;;9.70;99.90;;;;;;5036733;28;20196;-86
2022/01/03 03:37:04;;;;;;;14.73;2.40;;;9.70;99.90;;;;;;5036390;28;20188;-86
2022/01/03 03:39:33;;;;;;;13.07;2.27;;;9.70;99.90;;;;;;5036335;28;20207;-85
2022/01/03 03:42:00;;;;;;;11.33;2.10;;;9.70;99.90;;;;;;5036532;28;20212;-85
2022/01/03 03:44:25;;;;;;;10.57;1.77;;;9.60;99.90;;;;;;5054186;28;20176;-85
2022/01/03 03:46:51;;;;;;;15.00;1.80;;;9.70;99.90;;;;;;5054681;28;20189;-84
2022/01/03 03:49:17;;;;;;;19.37;3.13;;;9.70;99.90;;;;;;5036557;28;20234;-86
2022/01/03 03:51:42;;;;;;;8.30;2.13;;;9.70;99.90;;;;;;5036017;28;20232;-83
2022/01/03 03:54:08;;;;;;;9.00;2.60;;;9.60;99.90;;;;;;5036488;28;20215;-86
2022/01/03 03:56:34;;;;;;;4.83;0.87;;;9.60;99.90;;;;;;5036283;28;20188;-86
2022/01/03 03:59:00;;;;;;;12.13;2.03;;;9.60;99.90;;;;;;5094416;23;20251;-46
2022/01/03 04:01:25;;;;;;;4.43;1.50;;;9.60;99.90;;;;;;5093745;28;20673;-46
2022/01/03 04:03:51;;;;;;;14.60;2.20;;;9.70;99.90;;;;;;5094153;28;20202;-47
2022/01/03 04:06:17;;;;;;;8.90;1.53;;;9.70;99.90;;;;;;5075351;28;20179;-46
2022/01/03 04:08:45;;;;;;;13.00;2.40;;;9.70;99.90;;;;;;5075508;28;20178;-46
2022/01/03 04:11:13;;;;;;;8.57;1.77;;;9.70;99.90;;;;;;5075432;28;20175;-47
2022/01/03 04:13:39;;;;;;;16.23;2.23;;;9.60;99.90;;;;;;5093615;28;20630;-46
2022/01/03 04:16:05;;;;;;;11.97;2.03;;;9.60;99.90;;;;;;5075369;28;20174;-46
2022/01/03 04:18:31;;;;;;;12.43;2.07;;;9.60;99.90;;;;;;5093122;28;20232;-46
2022/01/03 04:20:57;;;;;;;5.57;1.50;;;9.60;99.90;;;;;;5092868;28;20202;-46
2022/01/03 04:23:23;;;;;;;11.43;2.03;;;9.60;99.90;;;;;;5093537;28;20342;-47
2022/01/03 04:25:50;;;;;;;5.93;1.47;;;9.50;99.90;;;;;;5093615;28;20163;-46
2022/01/03 04:28:16;;;;;;;11.10;2.47;;;9.60;99.90;;;;;;5093283;28;20264;-46
2022/01/03 04:30:42;;;;;;;10.67;2.40;;;9.60;99.90;;;;;;5075237;28;20210;-45
2022/01/03 04:33:07;;;;;;;13.00;1.83;;;9.80;99.90;;;;;;5093362;28;20265;-45
2022/01/03 04:35:33;;;;;;;8.17;1.97;;;9.60;99.90;;;;;;5093483;28;20190;-47
2022/01/03 04:37:58;;;;;;;10.37;1.73;;;9.60;99.90;;;;;;5093272;28;20183;-46
2022/01/03 04:40:24;;;;;;;12.53;2.13;;;9.60;99.90;;;;;;5075100;28;20269;-48
2022/01/03 04:42:51;;;;;;;11.50;1.87;;;9.60;99.90;;;;;;5093350;28;20210;-47
2022/01/03 04:45:17;;;;;;;9.10;1.90;;;9.60;99.90;;;;;;5093459;28;20210;-46
2022/01/03 04:47:43;;;;;;;9.13;1.70;;;9.50;99.90;;;;;;5093357;28;20195;-46
2022/01/03 04:50:09;;;;;;;11.47;1.57;;;9.50;99.90;;;;;;5093220;28;20212;-45
2022/01/03 04:52:34;;;;;;;6.33;1.57;;;9.50;99.90;;;;;;5093482;28;20214;-46
2022/01/03 04:55:01;;;;;;;9.10;2.40;;;9.50;99.90;;;;;;5093280;28;20277;-47
2022/01/03 04:57:27;;;;;;;16.90;2.03;;;9.50;99.90;;;;;;5075019;28;20183;-46
2022/01/03 04:59:52;;;;;;;9.70;1.47;;;9.50;99.90;;;;;;5093485;28;20687;-47
2022/01/03 05:02:18;;;;;;;10.03;2.17;;;9.60;99.90;;;;;;5093296;28;20712;-47
2022/01/03 05:04:44;;;;;;;8.67;2.10;;;9.60;99.90;;;;;;5093523;28;20175;-46
2022/01/03 05:07:11;;;;;;;9.40;1.83;;;9.60;99.90;;;;;;5093551;28;20179;-47
2022/01/03 05:09:36;;;;;;;9.27;1.70;;;9.60;99.90;;;;;;5093729;28;20175;-47
2022/01/03 05:12:02;;;;;;;16.10;2.33;;;9.60;99.90;;;;;;5075068;28;20199;-45
2022/01/03 05:14:28;;;;;;;8.33;1.80;;;9.60;99.90;;;;;;5075057;28;20187;-46
2022/01/03 05:16:54;;;;;;;12.00;2.30;;;9.60;99.90;;;;;;5075080;28;20183;-48
2022/01/03 05:19:20;;;;;;;8.50;1.83;;;9.60;99.90;;;;;;5074865;28;20546;-47
2022/01/03 05:21:46;;;;;;;8.63;1.33;;;9.70;99.90;;;;;;5093119;28;20206;-46
2022/01/03 05:24:13;;;;;;;10.03;1.87;;;9.70;99.90;;;;;;5093254;28;20649;-46
2022/01/03 05:26:39;;;;;;;12.10;2.40;;;9.70;99.90;;;;;;5093557;28;20189;-47
2022/01/03 05:29:04;;;;;;;16.13;2.50;;;9.70;99.90;;;;;;5093040;28;20254;-46
2022/01/03 05:31:30;;;;;;;9.03;1.47;;;9.70;99.90;;;;;;5077390;28;20730;-47
2022/01/03 05:33:56;;;;;;;13.37;2.30;;;9.70;99.90;;;;;;5096448;28;20211;-46
2022/01/03 05:36:22;;;;;;;13.40;2.23;;;9.70;99.90;;;;;;5078409;28;20190;-46
2022/01/03 05:38:47;;;;;;;12.83;1.93;;;9.60;99.90;;;;;;5096503;28;20183;-46
2022/01/03 05:41:13;;;;;;;10.50;2.20;;;9.70;99.90;;;;;;5096643;28;20214;-48
2022/01/03 05:43:39;;;;;;;10.00;2.23;;;9.70;99.90;;;;;;5097353;28;20199;-48
2022/01/03 05:46:05;;;;;;;13.00;1.63;;;9.70;99.90;;;;;;5096564;28;20281;-46
2022/01/03 05:48:31;;;;;;;13.67;2.80;;;9.70;99.90;;;;;;5096531;28;20585;-47
2022/01/03 05:50:57;;;;;;;6.30;1.27;;;9.70;99.90;;;;;;5096879;28;20191;-46
2022/01/03 05:53:22;;;;;;;19.03;3.63;;;9.70;99.90;;;;;;5096814;28;20205;-47
2022/01/03 05:55:49;;;;;;;17.77;2.47;;;9.70;99.90;;;;;;5097007;28;20361;-47
2022/01/03 05:58:15;;;;;;;12.93;2.77;;;9.70;99.90;;;;;;5096280;28;20649;-48
2022/01/03 06:00:41;;;;;;;12.50;2.20;;;9.60;99.90;;;;;;5096409;28;20174;-48
2022/01/03 06:03:07;;;;;;;42.50;3.77;;;9.60;99.90;;;;;;5097317;28;20550;-46
2022/01/03 06:08:02;;;;;;;22.13;3.53;;;9.60;99.90;;;;;;5096874;28;20194;-49
2022/01/03 06:10:28;;;;;;;7.47;1.40;;;9.60;99.90;;;;;;5096896;28;20187;-48
2022/01/03 06:12:54;;;;;;;16.73;2.80;;;9.60;99.90;;;;;;5078024;28;20217;-49
2022/01/03 06:15:24;;;;;;;10.13;2.50;;;9.60;99.90;;;;;;5079217;28;20630;-48
2022/01/03 06:17:51;;;;;;;11.40;2.20;;;9.60;99.90;;;;;;5096869;28;20186;-46
2022/01/03 06:20:17;;;;;;;5.40;1.40;;;9.60;99.90;;;;;;5097013;28;20360;-47
2022/01/03 06:22:44;;;;;;;14.67;2.37;;;9.60;99.90;;;;;;5096662;28;20228;-45
2022/01/03 06:25:10;;;;;;;17.27;2.07;;;9.60;99.90;;;;;;5079152;28;20172;-47
2022/01/03 06:27:37;;;;;;;10.87;1.67;;;9.60;99.90;;;;;;5097038;28;20605;-46
2022/01/03 06:30:07;;;;;;;12.13;2.23;;;9.60;99.90;;;;;;5096295;28;20183;-46
2022/01/03 06:32:32;;;;;;;8.10;2.10;;;9.60;99.90;;;;;;5077883;28;20194;-46
2022/01/03 06:34:58;;;;;;;17.27;2.17;;;9.60;99.90;;;;;;5095505;28;20179;-45
2022/01/03 06:37:23;;;;;;;10.23;3.13;;;9.60;99.90;;;;;;5095664;28;20171;-45
2022/01/03 06:39:49;;;;;;;11.30;2.73;;;9.70;99.90;;;;;;5077305;28;20630;-46
2022/01/03 06:42:16;;;;;;;6.73;1.70;;;9.70;99.90;;;;;;5094510;28;20211;-47
2022/01/03 06:44:43;;;;;;;11.77;2.47;;;9.70;99.90;;;;;;5095726;28;20175;-45
2022/01/03 06:47:09;;;;;;;12.90;2.43;;;9.60;99.90;;;;;;5095350;28;20244;-46
2022/01/03 06:49:35;;;;;;;17.67;2.40;;;9.70;99.90;;;;;;5095748;28;20175;-45
2022/01/03 06:52:01;;;;;;;10.07;2.10;;;9.60;99.90;;;;;;5095822;28;20199;-49
2022/01/03 06:54:26;;;;;;;8.93;1.70;;;9.70;99.90;;;;;;5095484;28;20175;-48
2022/01/03 06:56:52;;;;;;;11.10;2.47;;;9.70;99.90;;;;;;5095351;28;20187;-48
2022/01/03 06:59:17;;;;;;;11.47;2.57;;;9.80;99.90;;;;;;5095096;28;20202;-46
2022/01/03 07:01:43;;;;;;;14.83;2.07;;;9.70;99.90;;;;;;5094874;28;20685;-46
2022/01/03 07:04:09;;;;;;;11.20;1.97;;;9.70;99.90;;;;;;5094799;28;20167;-47
2022/01/03 07:06:36;;;;;;;13.40;2.63;;;9.70;99.90;;;;;;5076625;28;20171;-46
2022/01/03 07:09:05;;;;;;;12.13;2.20;;;9.80;99.90;;;;;;5094739;28;20210;-48
2022/01/03 07:11:31;;;;;;;14.03;2.47;;;9.70;99.90;;;;;;5094679;28;20178;-48
2022/01/03 07:18:55;;;;;;;16.33;2.87;;;9.70;99.90;;;;;;5076415;28;20564;-46
2022/01/03 07:19:26;;;;;;;12.60;3.03;;;9.70;99.90;;;;;;5094375;28;20190;-46
2022/01/03 07:21:51;;;;;;;16.90;2.87;;;9.60;99.90;;;;;;5094629;28;20210;-46
2022/01/03 07:24:17;;;;;;;15.50;2.97;;;9.60;99.90;;;;;;5094677;28;20184;-46
2022/01/03 07:26:42;;;;;;;18.30;3.17;;;9.60;99.90;;;;;;5094699;28;20171;-47
2022/01/03 07:29:08;;;;;;;16.00;3.23;;;9.60;99.90;;;;;;5094620;28;20649;-47
2022/01/03 07:31:34;;;;;;;11.93;2.70;;;9.50;99.90;;;;;;5094198;28;20175;-46
2022/01/03 07:33:59;;;;;;;13.43;2.47;;;9.50;99.90;;;;;;5094587;28;20177;-45
2022/01/03 07:36:25;;;;;;;11.87;2.60;;;9.50;99.90;;;;;;5094205;28;20206;-47
2022/01/03 07:38:50;;;;;;;11.17;2.23;;;9.50;99.90;;;;;;5094283;28;20171;-48
2022/01/03 07:41:16;;;;;;;8.60;1.80;;;9.50;99.90;;;;;;5093917;28;20206;-45
2022/01/03 07:43:43;;;;;;;10.63;2.50;;;9.50;99.90;;;;;;5075841;28;20568;-48
2022/01/03 07:46:09;;;;;;;13.43;2.83;;;9.50;99.90;;;;;;5075747;28;20266;-46
2022/01/03 07:48:35;;;;;;;12.77;3.00;;;9.50;99.90;;;;;;5094079;28;20191;-45
2022/01/03 07:51:00;;;;;;;10.83;2.40;;;9.50;99.90;;;;;;5094052;28;20179;-46
2022/01/03 07:53:27;;;;;;;16.93;3.27;;;9.50;99.90;;;;;;5075456;28;20238;-46
2022/01/03 07:55:52;;;;;;;19.13;3.13;;;9.40;99.90;;;;;;5075062;28;20215;-46
2022/01/03 07:58:18;;;;;;;13.67;2.43;;;9.40;99.90;;;;;;5093995;28;20663;-47
2022/01/03 08:00:45;;;;;;;14.17;2.57;;;9.40;99.90;;;;;;5093881;28;20179;-47
2022/01/03 08:03:11;;;;;;;11.87;2.47;;;9.40;99.90;;;;;;5094079;28;20566;-46
2022/01/03 08:05:36;;;;;;;18.63;3.03;;;9.40;99.90;;;;;;5093877;28;20189;-47
2022/01/03 08:08:03;;;;;;;12.27;1.97;;;9.40;99.90;;;;;;5094081;28;20623;-46
2022/01/03 08:10:29;;;;;;;19.83;4.10;;;9.30;99.90;;;;;;5075677;28;20210;-46
2022/01/03 08:12:54;;;;;;;13.57;2.40;;;9.40;99.90;;;;;;5093589;28;20230;-45
2022/01/03 08:15:21;;;;;;;18.23;2.77;;;9.40;99.90;;;;;;5093657;28;20178;-47
2022/01/03 08:17:46;;;;;;;15.37;2.90;;;9.40;99.90;;;;;;5093812;28;20648;-47
2022/01/03 08:20:12;;;;;;;19.13;3.10;;;9.30;99.90;;;;;;5093950;28;20182;-45
2022/01/03 08:22:38;;;;;;;17.27;2.70;;;9.40;99.90;;;;;;5093837;28;20212;-46
2022/01/03 08:25:04;;;;;;;17.47;2.90;;;9.40;99.90;;;;;;5093640;28;20265;-43
2022/01/03 08:27:30;;;;;;;21.00;3.57;;;9.40;99.90;;;;;;5075321;28;20178;-44
2022/01/03 08:29:55;;;;;;;12.80;2.83;;;9.40;99.90;;;;;;5093539;28;20261;-46
2022/01/03 08:32:21;;;;;;;9.70;1.83;;;9.40;99.90;;;;;;5093265;28;20681;-46
2022/01/03 08:34:47;;;;;;;17.93;3.20;;;9.50;99.90;;;;;;5093214;28;20527;-43
2022/01/03 08:37:12;;;;;;;17.20;3.77;;;9.50;99.90;;;;;;5075188;28;20533;-44
2022/01/03 08:39:38;;;;;;;20.93;3.23;;;9.50;99.90;;;;;;5093260;28;20269;-45
2022/01/03 08:42:04;;;;;;;13.03;1.97;;;9.60;99.90;;;;;;5093291;28;20225;-44
2022/01/03 08:44:30;;;;;;;20.67;3.03;;;9.60;99.90;;;;;;5093453;28;20175;-44
2022/01/03 08:46:55;;;;;;;14.60;2.50;;;9.60;99.90;;;;;;5093440;28;20177;-42
2022/01/03 08:49:21;;;;;;;7.00;1.80;;;9.60;99.90;;;;;;5093437;28;20190;-41
2022/01/03 08:51:46;;;;;;;17.60;3.30;;;9.70;99.90;;;;;;5093269;28;20236;-42
2022/01/03 08:54:12;;;;;;;4.07;1.70;;;9.70;99.90;;;;;;5093042;28;20206;-42
2022/01/03 08:56:38;;;;;;;9.57;2.03;;;9.80;99.90;;;;;;5093121;28;20218;-43
2022/01/03 08:59:05;;;;;;;16.30;2.73;;;9.80;99.90;;;;;;5092919;28;20226;-43
2022/01/03 09:01:30;;;;;;;12.23;2.30;;;9.90;99.90;;;;;;5092934;28;20210;-44
2022/01/03 09:03:56;;;;;;;8.23;2.07;;;9.90;99.90;;;;;;5092856;28;20206;-43
2022/01/03 09:06:22;;;;;;;11.40;1.87;;;9.90;99.90;;;;;;5095052;28;20190;-44
2022/01/03 09:08:48;;;;;;;8.93;1.93;;;10.00;99.90;;;;;;5096900;28;20175;-42
2022/01/03 09:11:14;;;;;;;11.70;2.03;;;10.00;99.90;;;;;;5078619;28;20556;-42
2022/01/03 09:13:40;;;;;;;10.37;2.27;;;10.00;99.90;;;;;;5096862;28;20211;-45
2022/01/03 09:16:07;;;;;;;6.07;1.70;;;10.00;99.90;;;;;;5096921;28;20270;-42
2022/01/03 09:18:35;;;;;;;10.40;2.00;;;10.00;99.90;;;;;;5096771;28;20190;-43
2022/01/03 09:21:01;;;;;;;8.63;2.30;;;10.00;99.90;;;;;;5097036;28;20184;-43
2022/01/03 09:23:31;;;;;;;9.33;1.83;;;10.00;99.90;;;;;;5096774;28;20535;-43
2022/01/03 09:28:56;;;;;;;10.27;2.33;;;10.00;99.90;;;;;;5096712;28;20174;-45
2022/01/03 09:31:34;;;;;;;12.10;2.90;;;10.00;99.90;;;;;;5096809;28;20159;-44
2022/01/03 09:34:02;;;;;;;10.67;2.17;;;10.00;99.90;;;;;;5096291;28;20190;-42
2022/01/03 09:36:30;;;;;;;12.67;2.17;;;10.00;99.90;;;;;;5096536;28;20183;-45
2022/01/03 09:38:56;;;;;;;12.70;2.10;;;10.00;99.90;;;;;;5096523;28;20618;-45
2022/01/03 09:41:25;;;;;;;14.30;2.40;;;10.10;99.90;;;;;;5077882;28;20217;-44
2022/01/03 09:43:54;;;;;;;18.57;2.33;;;10.10;99.90;;;;;;5096293;28;20198;-44
2022/01/03 09:46:25;;;;;;;10.97;2.37;;;10.10;99.90;;;;;;5096041;28;20258;-43
2022/01/03 09:48:52;;;;;;;13.83;2.60;;;10.10;99.90;;;;;;5077986;28;20224;-44
2022/01/03 09:51:20;;;;;;;15.73;2.77;;;10.10;99.90;;;;;;5096120;28;20181;-44
2022/01/03 09:53:47;;;;;;;8.37;1.97;;;10.10;99.90;;;;;;5095726;28;20234;-44
2022/01/03 09:56:14;;;;;;;10.93;2.40;;;10.10;99.90;;;;;;5096255;28;20240;-44
2022/01/03 09:58:40;;;;;;;19.80;4.70;;;10.20;99.90;;;;;;5095797;28;20727;-44
2022/01/03 10:01:06;;;;;;;19.03;3.93;;;10.20;99.90;;;;;;5095719;28;20197;-45
2022/01/03 10:03:34;;;;;;;16.20;2.80;;;10.20;99.90;;;;;;5095727;28;20662;-43
2022/01/03 10:06:00;;;;;;;10.57;2.10;;;10.30;99.90;;;;;;5077522;28;20182;-46
2022/01/03 10:08:25;;;;;;;15.97;2.97;;;10.30;99.90;;;;;;5095651;28;20180;-46
2022/01/03 10:10:52;;;;;;;14.70;2.47;;;10.30;99.90;;;;;;5095696;28;20183;-46
2022/01/03 10:13:18;;;;;;;19.27;3.70;;;10.30;99.90;;;;;;5095588;28;20195;-44
2022/01/03 10:15:44;;;;;;;14.97;3.13;;;10.40;99.90;;;;;;5077295;28;20630;-46
2022/01/03 10:18:18;;;;;;;10.93;2.70;;;10.40;99.90;;;;;;5094445;28;20181;-44
2022/01/03 10:20:44;;;;;;;18.43;3.17;;;10.40;99.90;;;;;;5060830;28;20179;-46
2022/01/03 10:23:11;;;;;;;11.63;2.83;;;10.40;99.90;;;;;;5095553;28;20751;-46
2022/01/03 10:25:37;;;;;;;15.93;3.27;;;10.50;99.90;;;;;;5077760;28;20183;-46
2022/01/03 10:28:04;;;;;;;10.83;2.57;;;10.50;99.90;;;;;;5095586;28;20175;-48
2022/01/03 10:30:43;;;;;;;10.83;2.90;;;10.60;99.90;;;;;;5095441;28;20194;-47
2022/01/03 10:33:13;;;;;;;8.90;2.53;;;10.60;99.90;;;;;;5077636;28;20253;-47
2022/01/03 10:35:45;;;;;;;10.63;2.13;;;10.60;99.90;;;;;;5077026;28;20652;-45
2022/01/03 10:38:29;;;;;;;12.87;3.27;;;10.70;99.90;;;;;;5095498;28;20178;-48
2022/01/03 10:41:14;;;;;;;17.73;2.93;;;10.70;99.90;;;;;;5095420;28;20627;-47
2022/01/03 10:43:42;;;;;;;16.67;2.47;;;10.60;99.90;;;;;;5095317;28;20281;-46
2022/01/03 10:46:26;;;;;;;16.57;3.37;;;10.70;99.90;;;;;;5077055;28;20175;-48
2022/01/03 10:49:06;;;;;;;14.13;2.43;;;10.70;99.90;;;;;;5095444;28;20167;-47
2022/01/03 10:51:32;;;;;;;13.10;2.80;;;10.70;99.90;;;;;;5095299;28;20163;-46
2022/01/03 10:53:58;;;;;;;9.67;1.80;;;10.70;99.90;;;;;;5094931;28;20328;-46
2022/01/03 10:56:32;;;;;;;11.87;2.17;;;10.80;99.90;;;;;;5094970;28;20173;-46
2022/01/03 10:59:24;;;;;;;12.90;2.73;;;10.80;99.90;;;;;;5095003;28;20713;-46
2022/01/03 11:01:59;;;;;;;5.83;1.77;;;10.80;99.90;;;;;;5076872;28;20208;-47
2022/01/03 11:04:40;;;;;;;9.30;1.77;;;10.80;99.90;;;;;;5095177;28;20679;-47
2022/01/03 11:13:15;;;;;;;6.77;1.60;;;11.00;99.90;;;;;;5094960;28;20802;-46
2022/01/03 11:15:56;;;;;;;8.73;2.30;;;11.00;99.90;;;;;;5095431;28;20159;-47
2022/01/03 11:18:30;;;;;;;9.13;1.97;;;11.00;99.90;;;;;;5094925;28;20299;-45
2022/01/03 11:21:13;;;;;;;8.17;1.73;;;11.00;99.90;;;;;;5094903;28;20171;-45
2022/01/03 11:23:41;;;;;;;5.83;1.63;;;11.00;99.90;;;;;;5076261;28;20210;-47
2022/01/03 11:26:17;;;;;;;15.67;2.50;;;11.00;99.90;;;;;;5094813;28;20179;-47
2022/01/03 11:28:43;;;;;;;8.83;2.00;;;11.00;99.90;;;;;;5076298;28;20176;-45
2022/01/03 11:31:12;;;;;;;7.37;1.93;;;10.90;99.90;;;;;;5094549;28;20175;-47
2022/01/03 11:33:38;;;;;;;13.80;2.47;;;10.90;99.90;;;;;;5094409;28;20193;-46
2022/01/03 11:36:05;;;;;;;11.63;2.50;;;10.80;99.90;;;;;;5094384;28;20177;-47
2022/01/03 11:38:35;;;;;;;10.20;2.13;;;10.80;99.90;;;;;;5076292;28;20217;-46
2022/01/03 11:41:04;;;;;;;8.17;1.90;;;10.80;99.90;;;;;;5094135;28;20256;-45
2022/01/03 11:43:32;;;;;;;8.37;1.90;;;10.80;99.90;;;;;;5075492;28;20197;-45
2022/01/03 11:45:57;;;;;;;11.33;2.23;;;10.70;99.90;;;;;;5094060;28;20261;-45
2022/01/03 11:48:26;;;;;;;14.50;2.60;;;10.70;99.90;;;;;;5093817;28;20212;-47
2022/01/03 11:50:53;;;;;;;9.20;2.23;;;10.70;99.90;;;;;;5093775;28;20542;-47
2022/01/03 11:53:20;;;;;;;12.70;2.37;;;10.70;99.90;;;;;;5093714;28;20660;-46
2022/01/03 11:55:54;;;;;;;13.33;2.53;;;10.70;99.90;;;;;;5075577;28;20207;-46
2022/01/03 12:03:36;;;;;;;14.10;2.90;;;10.60;99.90;;;;;;5093778;28;20612;-46
2022/01/03 12:04:35;;;;;;;13.67;2.90;;;10.70;99.90;;;;;;5062288;28;20237;-47
2022/01/03 12:07:09;;;;;;;17.03;3.17;;;10.70;99.90;;;;;;5093603;28;20182;-46
2022/01/03 12:09:38;;;;;;;15.77;3.07;;;10.70;99.90;;;;;;5093604;28;20252;-45
2022/01/03 12:12:05;;;;;;;18.67;2.97;;;10.70;99.90;;;;;;5093610;28;20193;-46
2022/01/03 12:14:43;;;;;;;16.73;2.70;;;10.70;99.90;;;;;;5093605;28;20240;-46
2022/01/03 12:17:11;;;;;;;10.90;2.80;;;10.60;99.90;;;;;;5093567;28;20180;-45
2022/01/03 12:19:42;;;;;;;12.57;2.47;;;10.60;99.90;;;;;;5093631;28;20191;-45
2022/01/03 12:22:18;;;;;;;16.13;2.80;;;10.50;99.90;;;;;;5076501;28;20277;-45
2022/01/03 12:25:00;;;;;;;14.30;3.03;;;10.40;99.90;;;;;;5093679;28;20156;-45
2022/01/03 12:27:41;;;;;;;15.80;2.90;;;10.20;99.90;;;;;;5075200;28;20267;-46
2022/01/03 12:30:13;;;;;;;13.70;3.63;;;10.10;99.90;;;;;;5093369;28;20169;-44
2022/01/03 12:32:45;;;;;;;15.30;2.87;;;10.00;99.90;;;;;;5093744;28;20264;-44
2022/01/03 12:35:16;;;;;;;22.67;4.10;;;9.90;99.90;;;;;;5075124;28;20246;-46
2022/01/03 12:37:54;;;;;;;17.17;4.47;;;9.90;99.90;;;;;;5093424;28;20182;-47
2022/01/03 12:40:29;;;;;;;16.60;5.77;;;9.80;99.90;;;;;;5094011;28;20169;-45
2022/01/03 12:43:05;;;;;;;14.63;5.30;;;9.80;99.90;;;;;;5097143;28;20210;-44
2022/01/03 12:45:34;;;;;;;23.30;6.40;;;9.80;99.90;;;;;;5079001;28;20256;-46
2022/01/03 12:48:11;;;;;;;25.27;6.00;;;9.80;99.90;;;;;;5079065;28;20177;-46
2022/01/03 12:50:50;;;;;;;23.73;8.73;;;9.70;99.90;;;;;;5079004;28;20652;-46
2022/01/03 12:53:27;;;;;;;23.70;7.00;;;9.70;99.90;;;;;;5097417;28;20195;-47
2022/01/03 12:55:56;;;;;;;27.97;5.87;;;9.70;99.90;;;;;;5097480;28;20174;-43
2022/01/03 12:58:22;;;;;;;11.97;2.50;;;9.70;99.90;;;;;;5078804;28;20207;-44
2022/01/03 13:00:55;;;;;;;15.90;2.70;;;9.60;99.90;;;;;;5097005;28;20512;-46
2022/01/03 13:03:47;;;;;;;11.60;3.10;;;9.30;99.90;;;;;;5096853;28;20208;-46
2022/01/03 13:06:13;;;;;;;7.10;3.30;;;9.30;99.90;;;;;;5078601;28;20180;-46
2022/01/03 13:08:55;;;;;;;13.87;3.83;;;9.20;99.90;;;;;;5096854;28;20281;-46
2022/01/03 13:11:26;;;;;;;11.97;3.67;;;9.10;99.90;;;;;;5096830;28;20192;-45